Ana Sayfa
METAR-TAF:

METAR-TAF

Havaalanları :

Morrisville-Stowe State Airport

Morrisville, Vermont, Amerika Birleşik Devletleri

Enlem: 44-32-10N, Boylam: 072-36-58W, yükseklik: 223 m

Güncel hava durumu gözlemi

Rapor saat 04:54 UTC de 25 dakika önce yapıldı.
Sakin rüzgar
Sıcaklık 17°C
Nem 94%
Basınç 1012 hPa
Görüş mesafesi: 16.1 km
10000 ft yükseklikte az bulutlu

METAR: KMVL 220454Z AUTO 00000KT 10SM FEW100 17/16 A2988 RMK AO2 SLP116 T01670156 402940167

Saat: 01:19 (05:19 UTC)


TAF: eksik

4.000'den fazla havaalanı için hava durumu gözlemleri ve tahminleri (METAR ve TAF raporları).

Kullanılabilir istasyonlar harita üzerinde sarı ve kırmızı noktalarla gösterilir.

İstasyonun adını görmek için fareyi noktanın üzerinde gezdirin.

Sonrasında hava gözlem ve tahminlerini görmek için tıklayın.

Haritayı değiştirmek için: yaklaştırmak için siyah artı işaretli yeşil düğmeye ve uzaklaştırmak için de eksi işaretli düğmeye hızla tıklayın; bitişik haritalar için yeşil okları kullanın.


METAR-TAF: